Time;durP1;ratioP1;P1;durP2;ratioP2;P2;SDS_P1;SDS_P2;PMS_P1;PMS_P2;Temp;Humidity;BMP_temperature;BMP_pressure;BME280_temperature;BME280_humidity;BME280_pressure;Samples;Min_cycle;Max_cycle;Signal;HPM_P1;HPM_P2
2022/08/14 00:00:22;;;;;;;6.87;5.27;;;20.90;78.70;;;;;;4994861;28;20686;-64
2022/08/14 00:02:50;;;;;;;5.83;5.23;;;20.90;79.40;;;;;;4995168;28;20231;-65
2022/08/14 00:05:20;;;;;;;6.87;5.20;;;20.80;80.50;;;;;;4995344;28;20613;-65
2022/08/14 00:07:48;;;;;;;10.67;6.10;;;20.70;80.80;;;;;;4994703;28;20254;-65
2022/08/14 00:10:19;;;;;;;5.60;5.10;;;20.70;81.60;;;;;;4994988;28;20212;-64
2022/08/14 00:12:47;;;;;;;5.73;5.13;;;20.70;83.30;;;;;;4994666;28;20282;-65
2022/08/14 00:15:18;;;;;;;7.73;4.97;;;20.60;84.60;;;;;;4994911;28;20204;-65
2022/08/14 00:17:46;;;;;;;6.10;5.20;;;20.60;86.20;;;;;;4994703;28;20631;-65
2022/08/14 00:20:14;;;;;;;6.07;4.93;;;20.60;85.90;;;;;;4994838;28;20208;-64
2022/08/14 00:22:41;;;;;;;6.87;5.87;;;20.60;87.40;;;;;;4994537;28;20227;-65
2022/08/14 00:25:09;;;;;;;7.80;5.73;;;20.60;88.30;;;;;;4994753;28;20266;-65
2022/08/14 00:27:36;;;;;;;6.07;5.37;;;20.50;90.00;;;;;;4994310;28;20208;-65
2022/08/14 00:30:05;;;;;;;6.27;5.53;;;20.50;90.90;;;;;;4994785;28;20294;-64
2022/08/14 00:32:32;;;;;;;6.67;6.00;;;20.50;91.40;;;;;;4994354;28;20227;-64
2022/08/14 00:35:00;;;;;;;7.97;5.77;;;20.40;92.60;;;;;;4994692;28;20262;-64
2022/08/14 00:37:28;;;;;;;8.03;6.23;;;20.40;97.00;;;;;;4994070;28;20774;-65
2022/08/14 00:39:55;;;;;;;8.47;7.27;;;20.40;96.40;;;;;;4994334;28;20270;-65
2022/08/14 00:42:23;;;;;;;10.50;7.13;;;20.30;97.80;;;;;;4994374;28;20231;-65
2022/08/14 00:44:50;;;;;;;6.93;6.23;;;20.20;99.10;;;;;;4994359;28;20211;-65
2022/08/14 00:47:18;;;;;;;7.67;6.40;;;20.20;99.90;;;;;;4994034;28;20211;-65
2022/08/14 00:49:45;;;;;;;6.63;5.93;;;20.10;99.90;;;;;;4994367;28;20254;-64
2022/08/14 00:52:14;;;;;;;6.70;6.00;;;20.10;99.90;;;;;;4993471;28;20220;-64
2022/08/14 00:54:43;;;;;;;7.50;6.50;;;20.10;99.90;;;;;;4994300;28;20215;-64
2022/08/14 00:57:10;;;;;;;7.97;6.70;;;20.10;99.90;;;;;;4993962;28;20229;-64
2022/08/14 00:59:37;;;;;;;7.77;6.83;;;20.10;99.90;;;;;;4994024;28;20621;-65
2022/08/14 01:02:05;;;;;;;11.77;7.37;;;20.10;99.90;;;;;;4994017;28;20306;-65
2022/08/14 01:04:35;;;;;;;11.97;7.23;;;20.10;99.90;;;;;;4993589;28;20306;-65
2022/08/14 01:07:02;;;;;;;10.13;6.77;;;20.00;99.90;;;;;;4993509;28;20214;-65
2022/08/14 01:09:30;;;;;;;7.73;6.90;;;20.00;99.90;;;;;;4994050;28;20242;-65
2022/08/14 01:11:58;;;;;;;8.07;6.83;;;19.90;99.90;;;;;;4993757;28;20224;-65
2022/08/14 01:14:25;;;;;;;7.83;6.80;;;19.90;99.90;;;;;;4993684;28;20212;-65
2022/08/14 01:16:52;;;;;;;8.50;6.63;;;19.90;99.90;;;;;;4993438;28;20258;-65
2022/08/14 01:22:05;;;;;;;10.00;6.80;;;19.90;99.90;;;;;;4993441;28;20269;-65
2022/08/14 01:24:31;;;;;;;7.73;6.57;;;19.80;99.90;;;;;;4993854;28;20254;-65
2022/08/14 01:26:59;;;;;;;7.77;6.57;;;19.80;99.90;;;;;;4993190;28;20207;-65
2022/08/14 01:29:26;;;;;;;7.77;6.97;;;19.80;99.90;;;;;;4993357;28;20212;-65
2022/08/14 01:31:53;;;;;;;8.80;6.57;;;19.90;99.90;;;;;;4993091;28;20722;-65
2022/08/14 01:34:22;;;;;;;9.13;6.60;;;19.80;99.90;;;;;;4993060;28;20698;-65
2022/08/14 01:36:49;;;;;;;9.03;7.17;;;19.80;99.90;;;;;;4993151;28;20314;-65
2022/08/14 01:39:19;;;;;;;7.90;6.80;;;19.80;99.90;;;;;;4993216;28;20237;-65
2022/08/14 01:41:55;;;;;;;7.93;7.17;;;19.70;99.90;;;;;;4993095;28;20285;-65
2022/08/14 01:44:27;;;;;;;7.87;7.07;;;19.70;99.90;;;;;;4993257;28;20211;-65
2022/08/14 01:46:55;;;;;;;9.30;7.20;;;19.70;99.90;;;;;;4992939;28;20718;-65
2022/08/14 01:49:22;;;;;;;8.93;6.80;;;19.70;99.90;;;;;;4993423;28;20208;-64
2022/08/14 01:51:53;;;;;;;10.60;7.20;;;19.70;99.90;;;;;;4993144;28;20243;-64
2022/08/14 01:54:22;;;;;;;8.73;7.63;;;19.70;99.90;;;;;;4993026;28;20274;-64
2022/08/14 01:56:51;;;;;;;9.00;7.00;;;19.60;99.90;;;;;;4992565;28;20675;-65
2022/08/14 01:59:25;;;;;;;10.00;7.77;;;19.60;99.90;;;;;;4992822;28;20666;-65
2022/08/14 02:01:53;;;;;;;9.63;7.93;;;19.60;99.90;;;;;;4992897;28;20289;-65
2022/08/14 02:04:22;;;;;;;11.73;7.50;;;19.60;99.90;;;;;;4992161;28;20266;-65
2022/08/14 02:06:50;;;;;;;9.90;7.57;;;19.60;99.90;;;;;;4992421;28;20207;-65
2022/08/14 02:09:18;;;;;;;8.87;7.97;;;19.60;99.90;;;;;;4992841;28;20686;-65
2022/08/14 02:11:46;;;;;;;9.73;7.50;;;19.60;99.90;;;;;;4992696;28;20228;-65
2022/08/14 02:14:13;;;;;;;9.57;7.60;;;19.60;99.90;;;;;;4992886;28;20618;-64
2022/08/14 02:16:43;;;;;;;8.07;7.27;;;19.60;99.90;;;;;;4992609;28;20215;-65
2022/08/14 02:19:14;;;;;;;9.30;8.00;;;19.60;99.90;;;;;;4992836;28;20304;-64
2022/08/14 02:21:42;;;;;;;9.03;7.40;;;19.60;99.90;;;;;;4992460;28;20245;-65
2022/08/14 02:24:10;;;;;;;11.57;8.23;;;19.50;99.90;;;;;;4992481;28;20235;-65
2022/08/14 02:26:39;;;;;;;8.57;7.70;;;19.50;99.90;;;;;;4992140;28;20705;-64
2022/08/14 02:29:09;;;;;;;13.13;7.97;;;19.60;99.90;;;;;;4992498;28;20298;-64
2022/08/14 02:31:39;;;;;;;11.60;7.87;;;19.60;99.90;;;;;;4992295;28;20722;-65
2022/08/14 02:34:09;;;;;;;9.40;8.03;;;19.60;99.90;;;;;;4992441;28;20769;-65
2022/08/14 02:36:35;;;;;;;8.43;7.50;;;19.60;99.90;;;;;;4991996;28;20298;-65
2022/08/14 02:39:02;;;;;;;10.13;7.70;;;19.60;99.90;;;;;;4992392;28;20242;-65
2022/08/14 02:41:31;;;;;;;9.00;7.57;;;19.60;99.90;;;;;;4992269;28;20242;-65
2022/08/14 02:43:57;;;;;;;9.67;8.67;;;19.60;99.90;;;;;;4992357;28;20211;-64
2022/08/14 02:46:26;;;;;;;10.43;7.83;;;19.60;99.90;;;;;;4992196;28;20238;-64
2022/08/14 02:48:53;;;;;;;11.40;8.33;;;19.60;99.90;;;;;;4992535;28;20207;-64
2022/08/14 02:51:20;;;;;;;10.13;7.97;;;19.60;99.90;;;;;;4992157;28;20269;-65
2022/08/14 02:53:47;;;;;;;10.20;7.97;;;19.50;99.90;;;;;;4992242;28;20210;-64
2022/08/14 02:56:15;;;;;;;12.20;9.03;;;19.40;99.90;;;;;;4992042;28;20262;-65
2022/08/14 02:58:46;;;;;;;12.57;8.47;;;19.40;99.90;;;;;;4992297;28;20214;-65
2022/08/14 03:01:15;;;;;;;9.10;8.20;;;19.40;99.90;;;;;;4991991;28;20302;-65
2022/08/14 03:03:44;;;;;;;9.30;8.27;;;19.40;99.90;;;;;;4992153;28;20303;-65
2022/08/14 03:06:12;;;;;;;12.07;8.40;;;19.30;99.90;;;;;;4991933;28;20211;-65
2022/08/14 03:08:40;;;;;;;9.70;8.43;;;19.30;99.90;;;;;;4992320;28;20274;-65
2022/08/14 03:11:08;;;;;;;9.23;8.30;;;19.30;99.90;;;;;;4992099;28;20210;-64
2022/08/14 03:13:37;;;;;;;8.80;7.90;;;19.20;99.90;;;;;;4992097;28;20211;-64
2022/08/14 03:16:04;;;;;;;9.17;8.27;;;19.20;99.90;;;;;;4994906;28;20203;-65
2022/08/14 03:18:31;;;;;;;9.57;8.57;;;19.20;99.90;;;;;;4995730;28;20207;-64
2022/08/14 03:21:01;;;;;;;10.30;8.70;;;19.20;99.90;;;;;;4996061;28;20257;-64
2022/08/14 03:23:34;;;;;;;9.17;8.20;;;19.20;99.90;;;;;;4995818;28;20323;-65
2022/08/14 03:26:02;;;;;;;11.23;8.20;;;19.00;99.90;;;;;;4995676;28;20587;-65
2022/08/14 03:28:29;;;;;;;10.33;8.50;;;19.00;99.90;;;;;;4995796;28;20215;-64
2022/08/14 03:30:57;;;;;;;10.47;8.20;;;19.00;99.90;;;;;;4995518;28;20230;-65
2022/08/14 03:33:23;;;;;;;11.17;9.77;;;18.90;99.90;;;;;;4995778;28;20322;-64
2022/08/14 03:35:50;;;;;;;10.60;9.17;;;18.90;99.90;;;;;;4995829;28;20207;-65
2022/08/14 03:38:18;;;;;;;9.90;8.87;;;18.80;99.90;;;;;;4995381;28;20211;-64
2022/08/14 03:40:46;;;;;;;9.50;8.60;;;18.80;99.90;;;;;;4995528;28;20219;-67
2022/08/14 03:43:13;;;;;;;10.43;8.93;;;18.80;99.90;;;;;;4995248;28;20753;-66
2022/08/14 03:45:41;;;;;;;12.33;8.37;;;18.80;99.90;;;;;;4995651;28;20212;-67
2022/08/14 03:48:18;;;;;;;13.83;9.27;;;18.80;99.90;;;;;;4995174;28;20239;-67
2022/08/14 03:50:46;;;;;;;11.40;9.20;;;18.80;99.90;;;;;;4995466;28;20211;-66
2022/08/14 03:53:13;;;;;;;10.53;9.30;;;18.80;99.90;;;;;;4995346;28;20223;-66
2022/08/14 03:55:42;;;;;;;10.87;8.87;;;18.80;99.90;;;;;;4995286;28;20250;-66
2022/08/14 03:58:10;;;;;;;9.97;8.77;;;18.80;99.90;;;;;;4995302;28;20212;-67
2022/08/14 04:00:40;;;;;;;16.87;12.77;;;18.80;99.90;;;;;;4995242;28;20215;-67
2022/08/14 04:03:09;;;;;;;11.67;9.67;;;18.80;99.90;;;;;;4994953;28;20706;-67
2022/08/14 04:05:37;;;;;;;14.17;9.83;;;18.80;99.90;;;;;;4995188;28;20624;-67
2022/08/14 04:08:05;;;;;;;11.83;10.10;;;18.60;1.00;;;;;;4994780;28;20235;-66
2022/08/14 04:13:19;;;;;;;11.67;10.17;;;18.40;99.90;;;;;;4994891;28;20705;-66
2022/08/14 04:15:46;;;;;;;11.60;9.47;;;18.40;1.00;;;;;;4994975;28;20251;-66
2022/08/14 04:18:13;;;;;;;13.27;9.83;;;18.40;1.00;;;;;;4994650;28;20207;-66
2022/08/14 04:20:41;;;;;;;11.60;9.87;;;18.40;1.00;;;;;;4994561;28;20671;-66
2022/08/14 04:23:09;;;;;;;13.83;10.23;;;18.30;99.90;;;;;;4994849;28;20239;-66
2022/08/14 04:25:38;;;;;;;11.90;10.70;;;18.10;1.00;;;;;;4994671;28;20211;-66
2022/08/14 04:28:06;;;;;;;11.53;10.20;;;18.00;99.90;;;;;;4993764;28;20215;-67
2022/08/14 04:30:38;;;;;;;11.97;10.47;;;18.00;1.00;;;;;;4994688;28;20230;-66
2022/08/14 04:33:06;;;;;;;11.77;10.57;;;18.00;1.00;;;;;;4994553;28;20281;-66
2022/08/14 04:35:33;;;;;;;11.10;9.87;;;17.90;1.00;;;;;;4994890;28;20207;-67
2022/08/14 04:43:37;;;;;;;13.10;10.03;;;17.90;99.90;;;;;;4994263;28;20285;-64
2022/08/14 04:46:06;;;;;;;10.60;9.50;;;18.10;99.90;;;;;;4994233;28;20211;-64
2022/08/14 04:48:32;;;;;;;10.53;9.33;;;18.20;99.90;;;;;;4994459;28;20211;-65
2022/08/14 04:50:59;;;;;;;10.33;9.23;;;18.40;1.00;;;;;;4994380;28;20295;-62
2022/08/14 04:53:30;;;;;;;10.37;9.33;;;18.60;1.00;;;;;;4994149;28;20232;-64
2022/08/14 04:55:57;;;;;;;12.40;9.53;;;18.70;99.90;;;;;;4993975;28;20281;-65
2022/08/14 04:58:25;;;;;;;12.17;10.13;;;18.70;99.90;;;;;;4993928;28;20214;-63
2022/08/14 05:00:53;;;;;;;12.03;9.80;;;18.80;46.90;;;;;;4994077;28;20639;-64
2022/08/14 05:03:25;;;;;;;14.37;9.63;;;18.80;1.00;;;;;;4994079;28;20231;-63
2022/08/14 05:05:52;;;;;;;10.30;9.23;;;18.80;1.00;;;;;;4993995;28;20220;-61
2022/08/14 05:08:19;;;;;;;11.30;9.67;;;18.70;67.10;;;;;;4994049;28;20339;-64
2022/08/14 05:10:50;;;;;;;10.83;9.67;;;18.50;1.00;;;;;;4993790;28;20278;-63
2022/08/14 05:13:18;;;;;;;11.87;9.93;;;18.40;1.00;;;;;;4994053;28;20310;-64
2022/08/14 05:15:45;;;;;;;11.33;9.13;;;18.40;1.00;;;;;;4993824;28;20262;-65
2022/08/14 05:18:15;;;;;;;11.77;9.67;;;18.40;1.00;;;;;;4993664;28;20210;-63
2022/08/14 05:20:46;;;;;;;11.27;9.60;;;18.60;99.90;;;;;;4993718;28;20235;-63
2022/08/14 05:23:14;;;;;;;12.93;9.50;;;18.70;1.00;;;;;;4993526;28;20228;-64
2022/08/14 05:25:41;;;;;;;13.60;9.67;;;18.70;99.90;;;;;;4993759;28;20270;-64
2022/08/14 05:28:10;;;;;;;12.73;10.20;;;18.80;1.00;;;;;;4993429;28;20239;-64
2022/08/14 05:30:37;;;;;;;11.37;10.17;;;18.80;99.90;;;;;;4993444;28;20732;-64
2022/08/14 05:33:05;;;;;;;12.17;9.70;;;19.00;1.00;;;;;;4993488;28;20285;-64
2022/08/14 05:35:32;;;;;;;15.17;10.20;;;19.00;99.90;;;;;;4993452;28;20208;-64
2022/08/14 05:38:00;;;;;;;11.77;9.27;;;19.20;1.00;;;;;;4992812;28;20315;-64
2022/08/14 05:40:27;;;;;;;13.03;9.53;;;19.20;99.90;;;;;;4993833;28;20215;-64
2022/08/14 05:42:54;;;;;;;11.67;9.70;;;19.30;1.00;;;;;;4993249;28;20258;-65
2022/08/14 05:45:21;;;;;;;11.03;9.87;;;19.40;99.90;;;;;;4993313;28;20208;-64
2022/08/14 05:47:47;;;;;;;10.77;9.67;;;19.30;1.00;;;;;;4992913;28;20629;-65
2022/08/14 05:50:15;;;;;;;11.47;9.37;;;19.40;99.90;;;;;;4993071;28;20258;-64
2022/08/14 05:52:41;;;;;;;10.30;9.13;;;19.40;99.90;;;;;;4993156;28;20231;-65
2022/08/14 05:55:11;;;;;;;10.67;9.40;;;19.50;42.90;;;;;;4992889;28;20242;-65
2022/08/14 05:57:49;;;;;;;11.93;9.87;;;19.60;1.00;;;;;;4992651;28;20208;-64
2022/08/14 06:00:18;;;;;;;10.60;9.47;;;19.70;1.00;;;;;;4993227;28;20732;-64
2022/08/14 06:02:45;;;;;;;12.17;9.33;;;19.80;99.90;;;;;;4992904;28;20228;-65
2022/08/14 06:05:11;;;;;;;10.20;9.07;;;19.90;99.90;;;;;;4993154;28;20207;-64
2022/08/14 06:07:38;;;;;;;11.03;9.87;;;20.00;99.90;;;;;;4992786;28;20211;-65
2022/08/14 06:10:07;;;;;;;12.47;9.33;;;20.10;1.00;;;;;;4993117;28;20215;-64
2022/08/14 06:12:35;;;;;;;11.23;9.73;;;20.20;99.90;;;;;;4992864;28;20227;-65
2022/08/14 06:15:03;;;;;;;10.80;8.70;;;20.30;99.90;;;;;;4992710;28;20211;-65
2022/08/14 06:17:29;;;;;;;10.93;9.80;;;20.50;10.40;;;;;;4992332;28;20223;-64
2022/08/14 06:19:56;;;;;;;14.23;8.93;;;20.60;1.00;;;;;;4992733;28;20219;-65
2022/08/14 06:22:23;;;;;;;14.00;9.30;;;20.70;1.00;;;;;;4992541;28;20227;-65
2022/08/14 06:24:49;;;;;;;10.97;9.63;;;20.80;1.00;;;;;;4992673;28;20262;-64
2022/08/14 06:27:16;;;;;;;10.30;9.17;;;20.80;1.00;;;;;;4992297;28;20212;-64
2022/08/14 06:29:44;;;;;;;10.47;9.37;;;20.90;99.90;;;;;;4992491;28;20635;-65
2022/08/14 06:32:11;;;;;;;11.57;8.87;;;21.00;99.90;;;;;;4992487;28;20235;-65
2022/08/14 06:34:38;;;;;;;10.10;9.10;;;21.10;99.90;;;;;;4992589;28;20262;-63
2022/08/14 06:37:05;;;;;;;13.53;10.20;;;21.10;99.90;;;;;;4992288;28;20219;-65
2022/08/14 06:39:32;;;;;;;10.97;9.87;;;21.20;99.90;;;;;;4992467;28;20303;-64
2022/08/14 06:41:59;;;;;;;11.30;8.97;;;21.30;99.90;;;;;;4992443;28;20237;-65
2022/08/14 06:44:27;;;;;;;11.00;8.73;;;21.40;99.90;;;;;;4992111;28;20289;-63
2022/08/14 06:46:55;;;;;;;11.50;9.97;;;21.50;99.90;;;;;;4992059;28;20299;-65
2022/08/14 06:49:21;;;;;;;15.20;13.47;;;21.60;99.90;;;;;;4994086;28;20679;-65
2022/08/14 06:51:48;;;;;;;12.17;9.40;;;21.60;99.90;;;;;;4998802;28;20286;-65
2022/08/14 06:54:14;;;;;;;10.17;8.93;;;21.70;99.90;;;;;;4998768;28;20254;-64
2022/08/14 06:56:41;;;;;;;10.83;9.13;;;21.80;99.90;;;;;;4998372;28;20203;-66
2022/08/14 06:59:08;;;;;;;9.43;8.43;;;21.90;99.90;;;;;;4998724;28;20238;-65
2022/08/14 07:07:04;;;;;;;12.50;9.60;;;22.20;99.90;;;;;;4998373;28;20214;-65
2022/08/14 07:09:31;;;;;;;10.60;9.13;;;22.20;99.90;;;;;;4998639;28;20207;-67
2022/08/14 07:11:58;;;;;;;12.33;10.17;;;22.30;99.90;;;;;;4998728;28;20257;-68
2022/08/14 07:14:25;;;;;;;10.63;8.47;;;22.40;99.90;;;;;;4998791;28;20203;-66
2022/08/14 07:16:52;;;;;;;14.33;9.03;;;22.30;99.90;;;;;;4998492;28;20290;-67
2022/08/14 07:19:20;;;;;;;14.00;10.37;;;22.40;99.90;;;;;;4998547;28;20258;-67
2022/08/14 07:21:46;;;;;;;11.40;8.67;;;22.50;99.90;;;;;;4998529;28;20721;-67
2022/08/14 07:24:13;;;;;;;14.63;9.17;;;22.50;99.90;;;;;;4998389;28;20219;-66
2022/08/14 07:26:40;;;;;;;12.50;9.23;;;22.60;99.90;;;;;;4998414;28;20207;-67
2022/08/14 07:29:06;;;;;;;9.77;8.77;;;22.70;99.90;;;;;;4998607;28;20409;-67
2022/08/14 07:31:33;;;;;;;11.77;9.53;;;22.80;99.90;;;;;;4998469;28;20239;-67
2022/08/14 07:34:00;;;;;;;14.40;10.13;;;22.90;99.90;;;;;;4998585;28;20219;-68
2022/08/14 07:36:28;;;;;;;11.03;9.27;;;23.00;99.90;;;;;;4998113;28;20242;-68
2022/08/14 07:38:55;;;;;;;14.47;10.80;;;23.20;99.90;;;;;;4998286;28;20220;-68
2022/08/14 07:41:21;;;;;;;10.00;9.00;;;23.30;99.90;;;;;;4998342;28;20636;-68
2022/08/14 07:43:48;;;;;;;11.30;8.73;;;23.40;99.90;;;;;;4998299;28;20231;-68
2022/08/14 07:46:16;;;;;;;10.53;8.70;;;23.50;99.90;;;;;;4998149;28;20319;-67
2022/08/14 07:48:43;;;;;;;10.57;9.03;;;23.70;99.90;;;;;;4998464;28;20670;-67
2022/08/14 07:51:10;;;;;;;10.17;8.23;;;23.70;99.90;;;;;;4998122;28;20298;-67
2022/08/14 07:53:39;;;;;;;10.40;8.73;;;23.80;99.90;;;;;;4998520;28;20204;-67
2022/08/14 07:56:06;;;;;;;10.37;8.50;;;24.00;99.90;;;;;;4998083;28;20211;-67
2022/08/14 07:58:32;;;;;;;11.03;8.70;;;24.20;99.90;;;;;;4998393;28;20211;-67
2022/08/14 08:01:01;;;;;;;9.20;8.30;;;24.40;99.90;;;;;;4997183;28;20299;-68
2022/08/14 08:03:28;;;;;;;10.23;8.50;;;24.30;99.90;;;;;;4995125;28;20239;-68
2022/08/14 08:05:55;;;;;;;9.43;8.43;;;24.30;99.90;;;;;;4994605;28;20219;-68
2022/08/14 08:08:22;;;;;;;11.80;8.47;;;24.50;99.90;;;;;;4995039;28;20823;-68
2022/08/14 08:10:55;;;;;;;10.97;8.83;;;24.50;99.90;;;;;;4995086;28;20204;-68
2022/08/14 08:13:22;;;;;;;9.90;8.10;;;24.50;99.90;;;;;;4994912;28;20714;-69
2022/08/14 08:15:52;;;;;;;9.43;8.30;;;24.60;99.90;;;;;;4994946;28;20678;-67
2022/08/14 08:18:20;;;;;;;9.07;8.10;;;24.80;99.90;;;;;;4994887;28;20211;-67
2022/08/14 08:20:48;;;;;;;11.17;7.83;;;24.90;99.90;;;;;;4994731;28;20211;-67
2022/08/14 08:23:17;;;;;;;9.03;7.70;;;25.00;99.90;;;;;;4994645;28;20227;-68
2022/08/14 08:25:47;;;;;;;8.43;7.60;;;25.20;99.90;;;;;;4994754;28;20587;-68
2022/08/14 08:28:19;;;;;;;8.83;7.93;;;25.50;99.90;;;;;;4994469;28;20216;-68
2022/08/14 08:30:49;;;;;;;9.20;8.13;;;25.60;99.90;;;;;;4994581;28;20204;-68
2022/08/14 08:33:16;;;;;;;8.20;7.33;;;25.70;99.90;;;;;;4994779;28;20278;-66
2022/08/14 08:35:43;;;;;;;9.23;7.73;;;26.00;99.90;;;;;;4994836;28;20575;-66
2022/08/14 08:38:12;;;;;;;7.77;6.87;;;26.10;99.90;;;;;;4995693;28;20211;-66
2022/08/14 08:40:41;;;;;;;7.77;6.97;;;26.20;99.90;;;;;;4997185;28;20212;-66
2022/08/14 08:43:16;;;;;;;7.67;6.97;;;26.30;99.90;;;;;;4997696;28;20236;-66
2022/08/14 08:45:44;;;;;;;8.43;7.53;;;26.30;99.90;;;;;;4995826;28;20215;-68
2022/08/14 08:48:11;;;;;;;8.43;7.20;;;26.40;99.90;;;;;;4994194;28;20211;-68
2022/08/14 08:50:39;;;;;;;13.53;9.77;;;26.50;99.90;;;;;;4994798;28;20769;-66
2022/08/14 08:53:08;;;;;;;8.70;7.80;;;26.40;99.90;;;;;;4994199;28;20227;-66
2022/08/14 08:55:37;;;;;;;8.33;7.37;;;26.50;99.90;;;;;;4994216;28;20624;-66
2022/08/14 08:58:07;;;;;;;9.63;8.27;;;26.30;99.90;;;;;;4993639;28;20294;-66
2022/08/14 09:00:36;;;;;;;8.87;7.53;;;26.50;99.90;;;;;;4986445;28;20211;-67
2022/08/14 09:03:07;;;;;;;8.00;7.30;;;26.60;99.90;;;;;;4990522;28;20231;-67
2022/08/14 09:05:37;;;;;;;8.73;7.77;;;26.70;99.90;;;;;;4993667;28;20216;-65
2022/08/14 09:08:12;;;;;;;11.53;10.27;;;26.70;99.90;;;;;;4993829;28;20212;-68
2022/08/14 09:10:39;;;;;;;9.47;7.97;;;26.70;99.90;;;;;;4993033;28;20720;-68
2022/08/14 09:13:06;;;;;;;8.67;7.73;;;26.80;99.90;;;;;;4992650;28;20359;-68
2022/08/14 09:15:32;;;;;;;8.47;7.63;;;27.00;99.90;;;;;;4993452;28;20215;-68
2022/08/14 09:17:59;;;;;;;9.10;7.40;;;27.00;99.90;;;;;;4993142;28;20682;-69
2022/08/14 09:20:28;;;;;;;8.47;7.57;;;27.10;99.90;;;;;;4993150;28;20216;-69
2022/08/14 09:22:55;;;;;;;11.03;7.57;;;27.20;99.90;;;;;;4992788;28;20232;-70
2022/08/14 09:25:22;;;;;;;7.87;7.10;;;27.30;99.90;;;;;;4993169;28;20717;-68
2022/08/14 09:27:48;;;;;;;7.73;6.77;;;27.50;99.90;;;;;;4992755;28;20254;-68
2022/08/14 09:30:15;;;;;;;8.00;7.30;;;27.50;99.90;;;;;;4993049;28;20593;-68
2022/08/14 09:32:55;;;;;;;7.40;6.67;;;27.50;99.90;;;;;;4991854;28;20238;-67
2022/08/14 09:35:30;;;;;;;6.87;6.17;;;27.60;99.90;;;;;;4992789;28;20670;-69
2022/08/14 09:38:06;;;;;;;10.67;7.13;;;27.60;99.90;;;;;;4992593;28;20262;-69
2022/08/14 09:40:47;;;;;;;8.00;6.37;;;27.70;99.90;;;;;;4992970;28;20207;-68
2022/08/14 09:43:26;;;;;;;10.43;6.80;;;27.70;99.90;;;;;;4992565;28;20231;-68
2022/08/14 09:45:57;;;;;;;7.60;6.63;;;27.50;99.90;;;;;;4992484;28;20242;-71
2022/08/14 09:48:25;;;;;;;8.73;6.07;;;27.40;99.90;;;;;;4992928;28;20250;-69
2022/08/14 09:50:53;;;;;;;7.20;6.03;;;27.50;99.90;;;;;;4992942;28;20247;-72
2022/08/14 09:53:36;;;;;;;8.17;6.73;;;27.60;99.90;;;;;;4992475;28;20232;-71
2022/08/14 09:56:04;;;;;;;6.30;5.70;;;27.70;99.90;;;;;;4992704;28;20207;-73
2022/08/14 09:58:40;;;;;;;10.10;6.07;;;27.70;98.40;;;;;;4992237;28;20906;-68
2022/08/14 10:01:12;;;;;;;6.40;5.80;;;27.80;99.90;;;;;;4993124;28;20209;-68
2022/08/14 10:03:47;;;;;;;9.07;6.40;;;27.80;99.90;;;;;;4992774;28;20224;-67
2022/08/14 10:06:16;;;;;;;8.07;6.27;;;27.80;98.80;;;;;;4992824;28;20211;-67
2022/08/14 10:08:47;;;;;;;7.17;6.47;;;27.60;97.00;;;;;;4994402;28;20683;-68
2022/08/14 10:11:16;;;;;;;8.83;6.73;;;27.70;99.90;;;;;;4992487;28;20218;-67
2022/08/14 10:13:43;;;;;;;8.27;6.73;;;27.70;99.90;;;;;;4992036;28;20208;-68
2022/08/14 10:16:11;;;;;;;7.20;6.50;;;27.80;97.80;;;;;;4992106;28;20211;-68
2022/08/14 10:18:38;;;;;;;7.67;6.50;;;28.00;99.90;;;;;;4988921;28;20208;-70
2022/08/14 10:21:09;;;;;;;10.93;6.53;;;28.00;98.20;;;;;;4990765;28;20212;-69
2022/08/14 10:23:42;;;;;;;6.83;6.13;;;28.10;99.40;;;;;;4991533;28;20710;-69
2022/08/14 10:26:15;;;;;;;8.07;6.80;;;28.30;99.90;;;;;;4991114;28;20207;-69
2022/08/14 10:28:44;;;;;;;7.23;6.53;;;28.30;99.90;;;;;;4991373;28;20705;-66
2022/08/14 10:31:21;;;;;;;8.30;6.93;;;28.20;99.90;;;;;;4992022;28;20215;-67
2022/08/14 10:34:00;;;;;;;7.37;6.60;;;28.30;98.80;;;;;;4991761;28;20218;-71
2022/08/14 10:36:31;;;;;;;8.30;7.40;;;28.20;99.40;;;;;;4991827;28;20219;-70
2022/08/14 10:39:01;;;;;;;7.80;6.77;;;28.30;99.90;;;;;;4991884;28;20258;-70
2022/08/14 10:41:40;;;;;;;10.90;6.50;;;28.50;99.90;;;;;;4991781;28;20777;-68
2022/08/14 10:44:13;;;;;;;7.43;6.73;;;28.50;99.90;;;;;;4990794;28;20765;-66
2022/08/14 10:46:43;;;;;;;7.37;6.27;;;28.40;99.90;;;;;;4992126;28;20599;-69
2022/08/14 10:49:18;;;;;;;7.40;6.40;;;28.30;97.20;;;;;;4991182;28;20211;-71
2022/08/14 10:51:58;;;;;;;7.27;6.43;;;28.30;96.40;;;;;;4990002;28;20278;-67
2022/08/14 10:54:31;;;;;;;8.67;7.73;;;28.40;99.10;;;;;;4991650;28;20204;-65
2022/08/14 10:57:10;;;;;;;7.40;6.70;;;28.50;98.10;;;;;;4991649;28;20239;-67
2022/08/14 10:59:42;;;;;;;7.07;5.90;;;28.60;99.90;;;;;;4991063;28;20572;-67
2022/08/14 11:02:28;;;;;;;8.63;6.00;;;28.80;98.30;;;;;;4991496;28;20318;-67
2022/08/14 11:04:59;;;;;;;8.23;6.20;;;28.90;98.00;;;;;;4991670;28;20219;-66
2022/08/14 11:07:29;;;;;;;7.30;5.93;;;28.90;98.70;;;;;;4991248;28;20709;-67
2022/08/14 11:09:59;;;;;;;7.00;6.30;;;28.80;95.70;;;;;;4991899;28;20207;-71
2022/08/14 11:12:39;;;;;;;6.93;6.23;;;28.90;95.40;;;;;;4991286;28;20612;-68
2022/08/14 11:15:07;;;;;;;7.50;5.90;;;29.00;98.10;;;;;;4991579;28;20211;-66
2022/08/14 11:17:35;;;;;;;6.97;5.73;;;29.10;96.80;;;;;;4990710;28;20212;-69
2022/08/14 11:20:05;;;;;;;8.50;6.00;;;29.20;95.90;;;;;;4991149;28;20697;-65
2022/08/14 11:22:32;;;;;;;7.43;6.43;;;29.10;97.10;;;;;;4987943;28;20624;-68
2022/08/14 11:25:04;;;;;;;6.80;6.10;;;29.20;98.70;;;;;;4991408;28;20259;-66
2022/08/14 11:27:33;;;;;;;7.00;5.60;;;29.40;99.90;;;;;;4991413;28;20238;-68
2022/08/14 11:30:03;;;;;;;7.40;6.03;;;29.60;99.90;;;;;;4991354;28;20218;-68
2022/08/14 11:32:30;;;;;;;6.63;5.93;;;29.60;96.40;;;;;;4990922;28;20694;-68
2022/08/14 11:34:57;;;;;;;7.03;6.33;;;29.50;99.90;;;;;;4989975;28;20237;-68
2022/08/14 11:37:24;;;;;;;6.27;5.70;;;29.40;98.00;;;;;;4994270;28;20705;-69
2022/08/14 11:39:51;;;;;;;7.13;6.43;;;29.40;98.10;;;;;;4995157;28;20215;-69
2022/08/14 11:42:23;;;;;;;6.63;6.03;;;29.50;99.10;;;;;;4994541;28;20231;-68
2022/08/14 11:44:51;;;;;;;6.37;5.77;;;29.30;96.50;;;;;;4995027;28;20318;-67
2022/08/14 11:47:19;;;;;;;6.73;6.03;;;29.60;98.40;;;;;;4994699;28;20204;-69
2022/08/14 11:49:46;;;;;;;6.30;5.65;;;29.80;99.90;;;;;;4995002;28;20207;-66
2022/08/14 11:52:13;;;;;;;6.90;5.82;;;30.00;99.90;;;;;;4994512;28;20285;-67
2022/08/14 11:54:40;;;;;;;6.47;5.88;;;30.20;99.90;;;;;;4994661;28;20219;-67
2022/08/14 11:57:14;;;;;;;6.68;5.63;;;30.30;99.90;;;;;;4994237;28;20299;-67
2022/08/14 11:59:41;;;;;;;6.28;5.68;;;30.30;99.10;;;;;;4994680;28;20250;-67
2022/08/14 12:02:14;;;;;;;6.20;5.60;;;30.40;99.90;;;;;;4994674;28;20334;-71
2022/08/14 12:04:49;;;;;;;6.82;6.22;;;30.30;99.90;;;;;;4994750;28;20239;-65
2022/08/14 12:07:17;;;;;;;6.97;6.27;;;29.90;95.10;;;;;;4994445;28;20265;-65
2022/08/14 12:09:45;;;;;;;8.97;6.30;;;29.70;93.80;;;;;;4994724;28;20215;-66
2022/08/14 12:12:16;;;;;;;6.63;6.03;;;29.90;96.50;;;;;;4994392;28;20231;-69
2022/08/14 12:14:55;;;;;;;6.93;6.22;;;30.20;95.70;;;;;;4994594;28;20207;-69
2022/08/14 12:17:24;;;;;;;6.40;5.80;;;30.50;96.60;;;;;;4994261;28;20761;-67
2022/08/14 12:19:57;;;;;;;6.80;6.05;;;30.60;99.90;;;;;;4994443;28;20223;-71
2022/08/14 12:22:34;;;;;;;6.82;6.13;;;30.80;99.90;;;;;;4994280;28;20257;-66
2022/08/14 12:25:02;;;;;;;6.82;5.97;;;30.80;99.90;;;;;;4994282;28;20231;-66
2022/08/14 12:27:37;;;;;;;6.63;5.80;;;30.80;99.90;;;;;;4993768;28;20218;-68
2022/08/14 12:30:05;;;;;;;9.95;7.53;;;30.70;97.50;;;;;;4994149;28;20674;-67
2022/08/14 12:32:42;;;;;;;7.95;6.32;;;30.30;98.40;;;;;;4993471;28;20242;-67
2022/08/14 12:35:09;;;;;;;15.15;10.43;;;30.60;98.50;;;;;;4994382;28;20204;-66
2022/08/14 12:37:37;;;;;;;6.78;6.05;;;30.80;99.90;;;;;;4993377;28;20290;-66
2022/08/14 12:40:12;;;;;;;6.95;6.30;;;30.80;99.90;;;;;;4993862;28;20659;-66
2022/08/14 12:42:39;;;;;;;6.53;5.82;;;30.90;99.90;;;;;;4993652;28;20985;-66
2022/08/14 12:45:09;;;;;;;7.13;5.55;;;30.90;99.30;;;;;;4993784;28;20723;-65
2022/08/14 12:47:36;;;;;;;6.07;5.20;;;30.80;99.40;;;;;;4993062;28;20591;-66
2022/08/14 12:50:05;;;;;;;5.85;5.25;;;30.80;98.40;;;;;;4993939;28;20209;-66
2022/08/14 12:52:34;;;;;;;5.78;5.22;;;30.80;99.90;;;;;;4993481;28;20231;-66
2022/08/14 12:55:03;;;;;;;6.90;6.20;;;30.70;96.50;;;;;;4993801;28;20212;-66
2022/08/14 12:57:35;;;;;;;7.28;5.95;;;30.70;98.60;;;;;;4993473;28;20212;-66
2022/08/14 13:00:08;;;;;;;11.63;9.60;;;30.80;98.10;;;;;;4993739;28;20242;-66
2022/08/14 13:02:38;;;;;;;8.50;7.60;;;30.90;99.90;;;;;;4993739;28;20235;-70
2022/08/14 13:05:09;;;;;;;6.60;5.90;;;31.00;99.30;;;;;;4993682;28;20223;-66
2022/08/14 13:07:39;;;;;;;7.53;6.15;;;31.20;99.90;;;;;;4993502;28;20298;-69